sensor_id;sensor_type;location;lat;lon;timestamp;pressure;altitude;pressure_sealevel;temperature;humidity
45285;BME280;31026;43.780;25.948;2023-02-02T00:02:03;100779.81;;;15.73;70.73
45285;BME280;31026;43.780;25.948;2023-02-02T00:04:33;100766.38;;;15.75;70.40
45285;BME280;31026;43.780;25.948;2023-02-02T00:07:02;100802.59;;;15.77;70.61
45285;BME280;31026;43.780;25.948;2023-02-02T00:09:31;100779.28;;;15.68;70.64
45285;BME280;31026;43.780;25.948;2023-02-02T00:12:02;100777.66;;;15.65;70.44
45285;BME280;31026;43.780;25.948;2023-02-02T00:14:31;100768.00;;;15.64;70.29
45285;BME280;31026;43.780;25.948;2023-02-02T00:16:59;100779.50;;;15.65;70.45
45285;BME280;31026;43.780;25.948;2023-02-02T00:19:29;100764.59;;;15.62;70.43
45285;BME280;31026;43.780;25.948;2023-02-02T00:21:57;100777.19;;;15.60;70.47
45285;BME280;31026;43.780;25.948;2023-02-02T00:24:26;100771.00;;;15.60;70.16
45285;BME280;31026;43.780;25.948;2023-02-02T00:26:55;100781.66;;;15.60;70.26
45285;BME280;31026;43.780;25.948;2023-02-02T00:29:27;100761.19;;;15.60;70.33
45285;BME280;31026;43.780;25.948;2023-02-02T00:31:55;100774.63;;;15.59;70.06
45285;BME280;31026;43.780;25.948;2023-02-02T00:34:23;100771.94;;;15.59;70.29
45285;BME280;31026;43.780;25.948;2023-02-02T00:36:52;100769.28;;;15.59;70.21
45285;BME280;31026;43.780;25.948;2023-02-02T00:39:21;100768.19;;;15.61;70.29
45285;BME280;31026;43.780;25.948;2023-02-02T00:41:50;100779.75;;;15.62;70.44
45285;BME280;31026;43.780;25.948;2023-02-02T00:44:18;100784.34;;;15.60;70.42
45285;BME280;31026;43.780;25.948;2023-02-02T00:47:02;100769.41;;;15.57;70.18
45285;BME280;31026;43.780;25.948;2023-02-02T00:49:30;100779.00;;;15.60;70.21
45285;BME280;31026;43.780;25.948;2023-02-02T00:51:58;100779.22;;;15.57;70.16
45285;BME280;31026;43.780;25.948;2023-02-02T00:54:27;100765.78;;;15.58;70.02
45285;BME280;31026;43.780;25.948;2023-02-02T00:56:55;100765.25;;;15.53;70.12
45285;BME280;31026;43.780;25.948;2023-02-02T00:59:24;100774.97;;;15.54;70.23
45285;BME280;31026;43.780;25.948;2023-02-02T01:01:52;100775.06;;;15.52;70.14
45285;BME280;31026;43.780;25.948;2023-02-02T01:04:23;100766.34;;;15.50;70.59
45285;BME280;31026;43.780;25.948;2023-02-02T01:06:51;100769.22;;;15.47;70.29
45285;BME280;31026;43.780;25.948;2023-02-02T01:09:20;100770.94;;;15.48;70.51
45285;BME280;31026;43.780;25.948;2023-02-02T01:11:48;100761.22;;;15.47;70.44
45285;BME280;31026;43.780;25.948;2023-02-02T01:14:16;100760.28;;;15.48;70.21
45285;BME280;31026;43.780;25.948;2023-02-02T01:16:44;100755.16;;;15.45;70.36
45285;BME280;31026;43.780;25.948;2023-02-02T01:19:13;100773.69;;;15.47;70.01
45285;BME280;31026;43.780;25.948;2023-02-02T01:21:44;100766.78;;;15.44;70.03
45285;BME280;31026;43.780;25.948;2023-02-02T01:24:12;100762.50;;;15.42;70.29
45285;BME280;31026;43.780;25.948;2023-02-02T01:26:41;100764.22;;;15.43;70.07
45285;BME280;31026;43.780;25.948;2023-02-02T01:29:09;100758.28;;;15.39;70.47
45285;BME280;31026;43.780;25.948;2023-02-02T01:31:37;100754.88;;;15.37;70.11
45285;BME280;31026;43.780;25.948;2023-02-02T01:34:06;100763.38;;;15.42;70.21
45285;BME280;31026;43.780;25.948;2023-02-02T01:36:35;100741.34;;;15.40;70.22
45285;BME280;31026;43.780;25.948;2023-02-02T01:39:05;100746.53;;;15.42;70.53
45285;BME280;31026;43.780;25.948;2023-02-02T01:41:34;100742.81;;;15.44;70.00
45285;BME280;31026;43.780;25.948;2023-02-02T01:44:03;100748.25;;;15.43;70.03
45285;BME280;31026;43.780;25.948;2023-02-02T01:46:32;100755.41;;;15.42;70.05
45285;BME280;31026;43.780;25.948;2023-02-02T01:49:02;100743.13;;;15.40;70.06
45285;BME280;31026;43.780;25.948;2023-02-02T01:51:34;100747.63;;;15.39;70.13
45285;BME280;31026;43.780;25.948;2023-02-02T01:54:07;100752.09;;;15.39;70.17
45285;BME280;31026;43.780;25.948;2023-02-02T01:56:38;100751.00;;;15.41;69.96
45285;BME280;31026;43.780;25.948;2023-02-02T01:59:08;100762.66;;;15.40;70.09
45285;BME280;31026;43.780;25.948;2023-02-02T02:01:37;100760.19;;;15.37;70.14
45285;BME280;31026;43.780;25.948;2023-02-02T02:04:05;100756.69;;;15.37;69.85
45285;BME280;31026;43.780;25.948;2023-02-02T02:06:34;100751.47;;;15.35;70.18
45285;BME280;31026;43.780;25.948;2023-02-02T02:09:03;100763.22;;;15.32;69.86
45285;BME280;31026;43.780;25.948;2023-02-02T02:11:34;100767.69;;;15.32;70.26
45285;BME280;31026;43.780;25.948;2023-02-02T02:14:03;100756.28;;;15.30;70.40
45285;BME280;31026;43.780;25.948;2023-02-02T02:16:48;100769.63;;;15.30;69.88
45285;BME280;31026;43.780;25.948;2023-02-02T02:19:29;100754.69;;;15.27;70.22
45285;BME280;31026;43.780;25.948;2023-02-02T02:22:24;100756.06;;;15.33;70.44
45285;BME280;31026;43.780;25.948;2023-02-02T02:25:15;100770.19;;;15.46;69.78
45285;BME280;31026;43.780;25.948;2023-02-02T02:33:35;100754.34;;;17.74;64.05
45285;BME280;31026;43.780;25.948;2023-02-02T02:36:09;100745.19;;;17.87;63.87
45285;BME280;31026;43.780;25.948;2023-02-02T02:38:43;100751.06;;;18.02;63.82
45285;BME280;31026;43.780;25.948;2023-02-02T02:41:17;100738.56;;;18.03;63.45
45285;BME280;31026;43.780;25.948;2023-02-02T02:43:47;100732.41;;;18.12;63.15
45285;BME280;31026;43.780;25.948;2023-02-02T02:46:18;100735.59;;;18.06;63.41
45285;BME280;31026;43.780;25.948;2023-02-02T02:48:49;100739.91;;;18.18;62.63
45285;BME280;31026;43.780;25.948;2023-02-02T02:54:01;100747.69;;;18.94;61.04
45285;BME280;31026;43.780;25.948;2023-02-02T02:56:30;100726.03;;;19.17;60.79
45285;BME280;31026;43.780;25.948;2023-02-02T02:59:01;100750.03;;;19.28;60.56
45285;BME280;31026;43.780;25.948;2023-02-02T03:01:41;100733.41;;;19.34;60.50
45285;BME280;31026;43.780;25.948;2023-02-02T03:04:17;100729.13;;;19.32;60.44
45285;BME280;31026;43.780;25.948;2023-02-02T03:06:50;100729.72;;;19.35;60.18
45285;BME280;31026;43.780;25.948;2023-02-02T03:09:20;100723.53;;;19.44;60.14
45285;BME280;31026;43.780;25.948;2023-02-02T03:11:50;100741.63;;;19.52;59.63
45285;BME280;31026;43.780;25.948;2023-02-02T03:14:18;100743.16;;;19.55;59.95
45285;BME280;31026;43.780;25.948;2023-02-02T03:16:46;100747.56;;;19.56;59.55
45285;BME280;31026;43.780;25.948;2023-02-02T03:19:20;100739.50;;;19.46;59.98
45285;BME280;31026;43.780;25.948;2023-02-02T03:21:48;100772.94;;;19.52;59.72
45285;BME280;31026;43.780;25.948;2023-02-02T03:24:16;100762.63;;;19.57;59.60
45285;BME280;31026;43.780;25.948;2023-02-02T03:26:45;100768.28;;;19.63;59.56
45285;BME280;31026;43.780;25.948;2023-02-02T03:29:13;100762.53;;;19.68;59.09
45285;BME280;31026;43.780;25.948;2023-02-02T03:31:41;100763.50;;;19.67;59.18
45285;BME280;31026;43.780;25.948;2023-02-02T03:34:10;100762.19;;;19.52;59.51
45285;BME280;31026;43.780;25.948;2023-02-02T03:36:41;100780.25;;;19.50;59.73
45285;BME280;31026;43.780;25.948;2023-02-02T03:39:09;100775.06;;;19.48;59.73
45285;BME280;31026;43.780;25.948;2023-02-02T03:41:37;100760.06;;;19.45;59.98
45285;BME280;31026;43.780;25.948;2023-02-02T03:44:05;100765.03;;;19.40;59.59
45285;BME280;31026;43.780;25.948;2023-02-02T03:46:34;100758.09;;;19.28;60.55
45285;BME280;31026;43.780;25.948;2023-02-02T03:49:02;100763.59;;;19.36;60.39
45285;BME280;31026;43.780;25.948;2023-02-02T03:51:30;100783.34;;;19.35;60.35
45285;BME280;31026;43.780;25.948;2023-02-02T03:54:01;100773.78;;;19.42;59.98
45285;BME280;31026;43.780;25.948;2023-02-02T03:56:29;100791.00;;;19.50;59.77
45285;BME280;31026;43.780;25.948;2023-02-02T03:58:58;100768.97;;;19.36;59.84
45285;BME280;31026;43.780;25.948;2023-02-02T04:01:26;100786.88;;;18.95;61.50
45285;BME280;31026;43.780;25.948;2023-02-02T04:03:56;100776.91;;;18.24;62.86
45285;BME280;31026;43.780;25.948;2023-02-02T04:06:24;100784.09;;;17.92;64.05
45285;BME280;31026;43.780;25.948;2023-02-02T04:08:53;100758.59;;;18.29;63.34
45285;BME280;31026;43.780;25.948;2023-02-02T04:11:24;100765.59;;;18.73;62.11
45285;BME280;31026;43.780;25.948;2023-02-02T04:13:52;100774.50;;;18.94;61.41
45285;BME280;31026;43.780;25.948;2023-02-02T04:16:20;100779.84;;;18.94;61.32
45285;BME280;31026;43.780;25.948;2023-02-02T04:18:48;100780.38;;;18.88;61.52
45285;BME280;31026;43.780;25.948;2023-02-02T04:21:17;100779.59;;;18.76;61.82
45285;BME280;31026;43.780;25.948;2023-02-02T04:23:45;100778.28;;;18.71;61.70
45285;BME280;31026;43.780;25.948;2023-02-02T04:26:13;100793.38;;;18.72;61.82
45285;BME280;31026;43.780;25.948;2023-02-02T04:28:44;100777.09;;;18.63;61.84
45285;BME280;31026;43.780;25.948;2023-02-02T04:31:13;100776.16;;;18.64;62.41
45285;BME280;31026;43.780;25.948;2023-02-02T04:33:41;100769.06;;;18.63;62.16
45285;BME280;31026;43.780;25.948;2023-02-02T04:36:09;100787.22;;;18.60;62.41
45285;BME280;31026;43.780;25.948;2023-02-02T04:38:37;100791.75;;;18.59;62.42
45285;BME280;31026;43.780;25.948;2023-02-02T04:41:06;100777.09;;;18.63;62.30
45285;BME280;31026;43.780;25.948;2023-02-02T04:43:35;100801.63;;;18.59;62.60
45285;BME280;31026;43.780;25.948;2023-02-02T04:46:06;100816.84;;;18.58;62.29
45285;BME280;31026;43.780;25.948;2023-02-02T04:48:34;100798.94;;;18.59;62.45
45285;BME280;31026;43.780;25.948;2023-02-02T04:51:04;100786.16;;;18.62;61.76
45285;BME280;31026;43.780;25.948;2023-02-02T04:53:32;100785.94;;;18.54;62.14
45285;BME280;31026;43.780;25.948;2023-02-02T04:56:03;100792.53;;;18.50;62.30
45285;BME280;31026;43.780;25.948;2023-02-02T04:58:32;100799.91;;;18.58;62.02
45285;BME280;31026;43.780;25.948;2023-02-02T05:01:00;100781.16;;;18.58;62.26
45285;BME280;31026;43.780;25.948;2023-02-02T05:03:37;100789.19;;;18.58;61.97
45285;BME280;31026;43.780;25.948;2023-02-02T05:06:05;100799.66;;;18.61;61.61
45285;BME280;31026;43.780;25.948;2023-02-02T05:08:34;100803.59;;;18.57;61.71
45285;BME280;31026;43.780;25.948;2023-02-02T05:11:05;100794.03;;;18.64;61.52
45285;BME280;31026;43.780;25.948;2023-02-02T05:13:33;100780.78;;;18.62;61.61
45285;BME280;31026;43.780;25.948;2023-02-02T05:16:02;100783.19;;;18.65;61.60
45285;BME280;31026;43.780;25.948;2023-02-02T05:18:30;100807.41;;;18.64;61.67
45285;BME280;31026;43.780;25.948;2023-02-02T05:21:01;100795.75;;;18.65;61.58
45285;BME280;31026;43.780;25.948;2023-02-02T05:23:30;100797.81;;;18.61;61.78
45285;BME280;31026;43.780;25.948;2023-02-02T05:25:58;100796.16;;;18.60;62.41
45285;BME280;31026;43.780;25.948;2023-02-02T05:28:27;100787.28;;;18.69;61.98
45285;BME280;31026;43.780;25.948;2023-02-02T05:30:55;100788.34;;;18.78;62.03
45285;BME280;31026;43.780;25.948;2023-02-02T05:33:24;100791.28;;;18.75;62.09
45285;BME280;31026;43.780;25.948;2023-02-02T05:35:52;100799.59;;;18.72;62.19
45285;BME280;31026;43.780;25.948;2023-02-02T05:38:23;100815.66;;;18.72;62.66
45285;BME280;31026;43.780;25.948;2023-02-02T05:40:51;100813.91;;;18.61;62.32
45285;BME280;31026;43.780;25.948;2023-02-02T05:43:20;100815.06;;;18.68;61.84
45285;BME280;31026;43.780;25.948;2023-02-02T05:45:51;100801.22;;;18.63;62.29
45285;BME280;31026;43.780;25.948;2023-02-02T05:48:19;100820.97;;;18.62;62.09
45285;BME280;31026;43.780;25.948;2023-02-02T05:50:48;100823.66;;;18.62;61.99
45285;BME280;31026;43.780;25.948;2023-02-02T05:53:24;100826.69;;;18.58;61.95
45285;BME280;31026;43.780;25.948;2023-02-02T05:55:53;100821.09;;;18.61;61.97
45285;BME280;31026;43.780;25.948;2023-02-02T05:58:21;100830.69;;;18.63;61.42
45285;BME280;31026;43.780;25.948;2023-02-02T06:00:50;100827.28;;;18.61;61.14
45285;BME280;31026;43.780;25.948;2023-02-02T06:03:18;100812.94;;;18.62;61.17
45285;BME280;31026;43.780;25.948;2023-02-02T06:05:46;100819.25;;;18.61;60.80
45285;BME280;31026;43.780;25.948;2023-02-02T06:08:15;100833.34;;;18.63;61.22
45285;BME280;31026;43.780;25.948;2023-02-02T06:10:46;100841.28;;;18.65;61.04
45285;BME280;31026;43.780;25.948;2023-02-02T06:13:15;100837.22;;;18.71;60.66
45285;BME280;31026;43.780;25.948;2023-02-02T06:15:43;100830.69;;;18.63;60.81
45285;BME280;31026;43.780;25.948;2023-02-02T06:21:07;100829.97;;;18.61;61.21
45285;BME280;31026;43.780;25.948;2023-02-02T06:23:35;100814.47;;;18.65;61.81
45285;BME280;31026;43.780;25.948;2023-02-02T06:26:12;100832.13;;;18.67;62.28
45285;BME280;31026;43.780;25.948;2023-02-02T06:28:40;100832.75;;;18.60;63.36
45285;BME280;31026;43.780;25.948;2023-02-02T06:31:10;100839.19;;;18.68;63.70
45285;BME280;31026;43.780;25.948;2023-02-02T06:33:39;100819.44;;;18.69;64.59
45285;BME280;31026;43.780;25.948;2023-02-02T06:36:07;100836.75;;;18.65;63.31
45285;BME280;31026;43.780;25.948;2023-02-02T06:38:36;100853.16;;;18.72;63.03
45285;BME280;31026;43.780;25.948;2023-02-02T06:41:04;100829.56;;;18.66;63.58
45285;BME280;31026;43.780;25.948;2023-02-02T06:43:35;100830.97;;;18.60;63.96
45285;BME280;31026;43.780;25.948;2023-02-02T06:46:04;100827.56;;;18.58;63.87
45285;BME280;31026;43.780;25.948;2023-02-02T06:48:32;100832.63;;;18.61;63.53
45285;BME280;31026;43.780;25.948;2023-02-02T06:51:00;100827.34;;;18.71;63.82
45285;BME280;31026;43.780;25.948;2023-02-02T06:53:29;100810.44;;;18.71;64.34
45285;BME280;31026;43.780;25.948;2023-02-02T06:55:58;100824.25;;;18.76;63.76
45285;BME280;31026;43.780;25.948;2023-02-02T06:58:27;100812.53;;;18.67;63.11
45285;BME280;31026;43.780;25.948;2023-02-02T07:01:02;100803.66;;;18.66;63.34
45285;BME280;31026;43.780;25.948;2023-02-02T07:03:31;100818.72;;;18.67;63.10
45285;BME280;31026;43.780;25.948;2023-02-02T07:06:08;100816.50;;;18.73;62.91
45285;BME280;31026;43.780;25.948;2023-02-02T07:08:37;100820.88;;;18.74;62.93
45285;BME280;31026;43.780;25.948;2023-02-02T07:11:05;100829.84;;;18.63;63.56
45285;BME280;31026;43.780;25.948;2023-02-02T07:13:34;100838.28;;;18.58;63.97
45285;BME280;31026;43.780;25.948;2023-02-02T07:16:05;100862.81;;;18.63;63.87
45285;BME280;31026;43.780;25.948;2023-02-02T07:18:33;100838.06;;;18.71;63.30
45285;BME280;31026;43.780;25.948;2023-02-02T07:21:02;100844.38;;;18.70;63.47
45285;BME280;31026;43.780;25.948;2023-02-02T07:23:31;100842.44;;;18.72;63.30
45285;BME280;31026;43.780;25.948;2023-02-02T07:26:00;100851.00;;;18.66;65.03
45285;BME280;31026;43.780;25.948;2023-02-02T07:28:28;100848.09;;;18.90;65.07
45285;BME280;31026;43.780;25.948;2023-02-02T07:30:57;100850.41;;;19.04;65.04
45285;BME280;31026;43.780;25.948;2023-02-02T07:33:27;100861.72;;;19.18;64.83
45285;BME280;31026;43.780;25.948;2023-02-02T07:35:56;100887.44;;;19.20;64.77
45285;BME280;31026;43.780;25.948;2023-02-02T07:38:24;100869.94;;;19.16;64.81
45285;BME280;31026;43.780;25.948;2023-02-02T07:40:52;100882.75;;;19.13;65.28
45285;BME280;31026;43.780;25.948;2023-02-02T07:43:22;100882.22;;;19.19;65.63
45285;BME280;31026;43.780;25.948;2023-02-02T07:45:50;100884.53;;;19.33;65.30
45285;BME280;31026;43.780;25.948;2023-02-02T07:48:18;100903.59;;;19.30;64.79
45285;BME280;31026;43.780;25.948;2023-02-02T07:50:49;100897.94;;;19.33;64.90
45285;BME280;31026;43.780;25.948;2023-02-02T07:53:17;100894.91;;;19.17;65.53
45285;BME280;31026;43.780;25.948;2023-02-02T07:55:47;100883.50;;;19.24;65.87
45285;BME280;31026;43.780;25.948;2023-02-02T07:58:15;100888.75;;;19.26;65.83
45285;BME280;31026;43.780;25.948;2023-02-02T08:00:44;100891.03;;;19.31;66.19
45285;BME280;31026;43.780;25.948;2023-02-02T08:03:12;100879.81;;;18.74;67.75
45285;BME280;31026;43.780;25.948;2023-02-02T08:05:40;100895.13;;;18.29;68.88
45285;BME280;31026;43.780;25.948;2023-02-02T08:08:11;100883.41;;;17.98;69.68
45285;BME280;31026;43.780;25.948;2023-02-02T08:10:45;100882.09;;;17.81;70.00
45285;BME280;31026;43.780;25.948;2023-02-02T08:13:14;100888.44;;;17.69;70.61
45285;BME280;31026;43.780;25.948;2023-02-02T08:15:42;100880.19;;;17.61;70.44
45285;BME280;31026;43.780;25.948;2023-02-02T08:18:10;100851.03;;;17.58;71.13
45285;BME280;31026;43.780;25.948;2023-02-02T08:20:39;100851.41;;;17.53;70.71
45285;BME280;31026;43.780;25.948;2023-02-02T08:23:07;100866.84;;;17.49;70.51
45285;BME280;31026;43.780;25.948;2023-02-02T08:25:42;100864.41;;;17.46;70.84
45285;BME280;31026;43.780;25.948;2023-02-02T08:28:10;100832.47;;;17.45;70.96
45285;BME280;31026;43.780;25.948;2023-02-02T08:30:39;100834.97;;;17.46;71.44
45285;BME280;31026;43.780;25.948;2023-02-02T08:33:07;100839.59;;;17.44;71.81
45285;BME280;31026;43.780;25.948;2023-02-02T08:35:39;100835.75;;;17.37;70.95
45285;BME280;31026;43.780;25.948;2023-02-02T08:38:07;100822.88;;;17.31;71.38
45285;BME280;31026;43.780;25.948;2023-02-02T08:40:35;100816.06;;;17.27;71.54
45285;BME280;31026;43.780;25.948;2023-02-02T08:43:06;100820.09;;;17.21;71.29
45285;BME280;31026;43.780;25.948;2023-02-02T08:45:34;100820.31;;;17.18;72.17
45285;BME280;31026;43.780;25.948;2023-02-02T08:48:03;100816.06;;;17.16;71.57
45285;BME280;31026;43.780;25.948;2023-02-02T08:50:32;100817.53;;;17.08;72.34
45285;BME280;31026;43.780;25.948;2023-02-02T08:53:00;100807.81;;;17.07;71.93
45285;BME280;31026;43.780;25.948;2023-02-02T08:55:28;100837.09;;;17.09;71.92
45285;BME280;31026;43.780;25.948;2023-02-02T08:57:57;100763.81;;;16.66;71.56
45285;BME280;31026;43.780;25.948;2023-02-02T09:00:28;100826.13;;;17.01;71.77
45285;BME280;31026;43.780;25.948;2023-02-02T09:02:56;100842.31;;;16.99;72.18
45285;BME280;31026;43.780;25.948;2023-02-02T09:05:24;100865.47;;;16.99;72.22
45285;BME280;31026;43.780;25.948;2023-02-02T09:07:52;100862.69;;;17.00;71.92
45285;BME280;31026;43.780;25.948;2023-02-02T09:10:21;100849.22;;;16.90;71.97
45285;BME280;31026;43.780;25.948;2023-02-02T09:12:49;100840.56;;;16.87;72.70
45285;BME280;31026;43.780;25.948;2023-02-02T09:15:17;100848.72;;;16.85;72.72
45285;BME280;31026;43.780;25.948;2023-02-02T09:17:49;100845.44;;;16.82;72.67
45285;BME280;31026;43.780;25.948;2023-02-02T09:20:17;100829.63;;;16.79;72.40
45285;BME280;31026;43.780;25.948;2023-02-02T09:22:46;100827.09;;;16.77;72.27
45285;BME280;31026;43.780;25.948;2023-02-02T09:28:10;100834.59;;;16.72;72.17
45285;BME280;31026;43.780;25.948;2023-02-02T09:30:38;100834.59;;;16.72;72.22
45285;BME280;31026;43.780;25.948;2023-02-02T09:33:09;100821.59;;;16.67;72.02
45285;BME280;31026;43.780;25.948;2023-02-02T09:35:38;100816.59;;;16.63;72.06
45285;BME280;31026;43.780;25.948;2023-02-02T09:38:06;100814.06;;;16.61;72.16
45285;BME280;31026;43.780;25.948;2023-02-02T09:40:34;100806.28;;;16.58;72.47
45285;BME280;31026;43.780;25.948;2023-02-02T09:43:05;100803.09;;;16.53;72.68
45285;BME280;31026;43.780;25.948;2023-02-02T09:45:39;100784.56;;;16.52;72.45
45285;BME280;31026;43.780;25.948;2023-02-02T09:48:15;100787.72;;;16.57;72.24
45285;BME280;31026;43.780;25.948;2023-02-02T09:50:48;100784.19;;;16.56;72.09
45285;BME280;31026;43.780;25.948;2023-02-02T09:53:23;100772.53;;;16.57;72.67
45285;BME280;31026;43.780;25.948;2023-02-02T09:55:54;100776.56;;;16.63;72.56
45285;BME280;31026;43.780;25.948;2023-02-02T09:58:25;100783.72;;;16.62;72.59
45285;BME280;31026;43.780;25.948;2023-02-02T10:00:56;100763.34;;;16.61;72.85
45285;BME280;31026;43.780;25.948;2023-02-02T10:03:29;100762.72;;;16.58;72.81
45285;BME280;31026;43.780;25.948;2023-02-02T10:06:01;100762.13;;;16.54;72.82
45285;BME280;31026;43.780;25.948;2023-02-02T10:08:32;100750.81;;;16.50;72.95
45285;BME280;31026;43.780;25.948;2023-02-02T10:11:03;100764.06;;;16.52;73.01
45285;BME280;31026;43.780;25.948;2023-02-02T10:13:36;100759.31;;;16.44;72.83
45285;BME280;31026;43.780;25.948;2023-02-02T10:16:11;100758.94;;;16.38;72.19
45285;BME280;31026;43.780;25.948;2023-02-02T10:18:45;100730.69;;;16.46;72.16
45285;BME280;31026;43.780;25.948;2023-02-02T10:21:17;100716.13;;;16.50;71.65
45285;BME280;31026;43.780;25.948;2023-02-02T10:23:49;100726.41;;;16.55;71.92
45285;BME280;31026;43.780;25.948;2023-02-02T10:26:19;100723.03;;;16.53;71.62
45285;BME280;31026;43.780;25.948;2023-02-02T10:28:55;100728.63;;;16.50;71.65
45285;BME280;31026;43.780;25.948;2023-02-02T10:34:16;100725.84;;;16.52;72.22
45285;BME280;31026;43.780;25.948;2023-02-02T10:36:48;100720.63;;;16.61;72.20
45285;BME280;31026;43.780;25.948;2023-02-02T10:39:19;100708.84;;;16.64;71.95
45285;BME280;31026;43.780;25.948;2023-02-02T10:41:53;100707.75;;;16.66;72.06
45285;BME280;31026;43.780;25.948;2023-02-02T10:44:28;100710.03;;;16.71;72.36
45285;BME280;31026;43.780;25.948;2023-02-02T10:46:59;100701.91;;;16.73;72.79
45285;BME280;31026;43.780;25.948;2023-02-02T10:49:32;100701.19;;;16.70;73.02
45285;BME280;31026;43.780;25.948;2023-02-02T10:52:03;100713.31;;;16.75;72.60
45285;BME280;31026;43.780;25.948;2023-02-02T10:54:42;100710.31;;;16.68;72.92
45285;BME280;31026;43.780;25.948;2023-02-02T10:57:13;100707.53;;;16.69;72.58
45285;BME280;31026;43.780;25.948;2023-02-02T10:59:45;100706.91;;;16.66;72.58
45285;BME280;31026;43.780;25.948;2023-02-02T11:02:16;100706.41;;;16.61;72.38
45285;BME280;31026;43.780;25.948;2023-02-02T11:04:47;100726.81;;;16.62;72.74
45285;BME280;31026;43.780;25.948;2023-02-02T11:07:28;100723.28;;;16.50;72.43
45285;BME280;31026;43.780;25.948;2023-02-02T11:09:56;100723.75;;;16.55;72.14
45285;BME280;31026;43.780;25.948;2023-02-02T11:12:26;100703.13;;;16.57;72.72
45285;BME280;31026;43.780;25.948;2023-02-02T11:14:58;100716.00;;;16.52;73.61
45285;BME280;31026;43.780;25.948;2023-02-02T11:17:30;100664.06;;;16.34;75.00
45285;BME280;31026;43.780;25.948;2023-02-02T11:20:01;100685.41;;;16.45;75.15
45285;BME280;31026;43.780;25.948;2023-02-02T11:22:48;100684.69;;;16.32;75.32
45285;BME280;31026;43.780;25.948;2023-02-02T11:25:26;100670.75;;;16.28;75.39
45285;BME280;31026;43.780;25.948;2023-02-02T11:27:58;100668.41;;;16.23;75.25
45285;BME280;31026;43.780;25.948;2023-02-02T11:30:29;100689.03;;;16.21;74.98
45285;BME280;31026;43.780;25.948;2023-02-02T11:33:00;100651.31;;;16.15;75.20
45285;BME280;31026;43.780;25.948;2023-02-02T11:35:54;100655.19;;;16.33;75.13
45285;BME280;31026;43.780;25.948;2023-02-02T11:38:23;100665.75;;;16.35;75.64
45285;BME280;31026;43.780;25.948;2023-02-02T11:40:52;100655.34;;;16.32;74.82
45285;BME280;31026;43.780;25.948;2023-02-02T11:43:24;100656.31;;;16.30;75.14
45285;BME280;31026;43.780;25.948;2023-02-02T11:45:53;100640.56;;;16.27;74.62
45285;BME280;31026;43.780;25.948;2023-02-02T11:48:23;100652.78;;;16.30;74.60
45285;BME280;31026;43.780;25.948;2023-02-02T11:50:57;100643.34;;;16.26;74.57
45285;BME280;31026;43.780;25.948;2023-02-02T11:53:26;100644.16;;;16.26;74.92
45285;BME280;31026;43.780;25.948;2023-02-02T11:55:56;100638.94;;;16.25;74.70
45285;BME280;31026;43.780;25.948;2023-02-02T11:58:25;100643.56;;;16.23;74.79
45285;BME280;31026;43.780;25.948;2023-02-02T12:00:58;100641.63;;;16.36;74.61
45285;BME280;31026;43.780;25.948;2023-02-02T12:03:29;100630.69;;;16.39;74.21
45285;BME280;31026;43.780;25.948;2023-02-02T12:06:00;100639.06;;;16.35;74.33
45285;BME280;31026;43.780;25.948;2023-02-02T12:08:44;100647.94;;;16.24;74.60
45285;BME280;31026;43.780;25.948;2023-02-02T12:11:15;100640.75;;;16.13;75.06
45285;BME280;31026;43.780;25.948;2023-02-02T12:13:51;100656.66;;;16.15;74.49
45285;BME280;31026;43.780;25.948;2023-02-02T12:16:31;100655.31;;;16.09;74.79
45285;BME280;31026;43.780;25.948;2023-02-02T12:19:08;100658.09;;;16.07;74.74
45285;BME280;31026;43.780;25.948;2023-02-02T12:21:46;100657.03;;;16.10;74.42
45285;BME280;31026;43.780;25.948;2023-02-02T12:24:25;100652.88;;;16.17;74.67
45285;BME280;31026;43.780;25.948;2023-02-02T12:26:57;100669.38;;;16.11;74.46
45285;BME280;31026;43.780;25.948;2023-02-02T12:29:32;100665.25;;;16.07;74.70
45285;BME280;31026;43.780;25.948;2023-02-02T12:32:13;100670.09;;;16.02;74.65
45285;BME280;31026;43.780;25.948;2023-02-02T12:34:48;100692.91;;;16.06;74.88
45285;BME280;31026;43.780;25.948;2023-02-02T12:37:23;100686.84;;;16.04;74.56
45285;BME280;31026;43.780;25.948;2023-02-02T12:40:01;100695.94;;;16.13;74.54
45285;BME280;31026;43.780;25.948;2023-02-02T12:42:36;100681.16;;;16.20;74.34
45285;BME280;31026;43.780;25.948;2023-02-02T12:45:18;100682.50;;;16.25;74.29
45285;BME280;31026;43.780;25.948;2023-02-02T12:47:51;100683.34;;;16.26;74.46
45285;BME280;31026;43.780;25.948;2023-02-02T12:50:27;100693.19;;;16.25;74.41
45285;BME280;31026;43.780;25.948;2023-02-02T12:53:04;100694.66;;;16.29;74.50
45285;BME280;31026;43.780;25.948;2023-02-02T12:55:41;100670.25;;;16.34;74.50
45285;BME280;31026;43.780;25.948;2023-02-02T12:58:14;100685.75;;;16.29;75.12
45285;BME280;31026;43.780;25.948;2023-02-02T13:00:57;100668.69;;;16.32;75.04
45285;BME280;31026;43.780;25.948;2023-02-02T13:03:31;100670.00;;;16.37;75.12
45285;BME280;31026;43.780;25.948;2023-02-02T13:06:16;100675.22;;;16.39;74.98
45285;BME280;31026;43.780;25.948;2023-02-02T13:08:52;100682.03;;;16.43;75.26
45285;BME280;31026;43.780;25.948;2023-02-02T13:11:30;100659.72;;;16.44;75.39
45285;BME280;31026;43.780;25.948;2023-02-02T13:13:59;100669.16;;;16.48;75.66
45285;BME280;31026;43.780;25.948;2023-02-02T13:16:29;100665.91;;;16.56;74.92